createdAt,value
2023-05-07T00:00:44.174Z,74.55
2023-05-07T00:06:06.042Z,76.76
2023-05-07T00:11:29.238Z,76.85
2023-05-07T00:16:51.068Z,76.45
2023-05-07T00:22:12.994Z,76.54
2023-05-07T00:27:34.763Z,77.79
2023-05-07T00:32:56.512Z,78.75
2023-05-07T00:38:18.223Z,79.00
2023-05-07T00:43:40.049Z,80.62
2023-05-07T00:49:02.041Z,79.53
2023-05-07T00:54:23.792Z,79.33
2023-05-07T00:59:45.636Z,79.42
2023-05-07T01:05:10.409Z,79.84
2023-05-07T01:10:33.077Z,80.99
2023-05-07T01:15:54.924Z,80.07
2023-05-07T01:21:18.574Z,80.72
2023-05-07T01:26:40.948Z,80.30
2023-05-07T01:32:04.308Z,80.27
2023-05-07T01:37:26.705Z,80.79
2023-05-07T01:42:49.208Z,80.61
2023-05-07T01:48:12.559Z,80.50
2023-05-07T01:53:38.019Z,79.92
2023-05-07T01:58:59.736Z,80.82
2023-05-07T02:04:22.046Z,81.75
2023-05-07T02:09:43.710Z,82.38
2023-05-07T02:15:06.499Z,82.19
2023-05-07T02:20:28.414Z,81.77
2023-05-07T02:25:50.204Z,81.11
2023-05-07T02:31:11.937Z,82.84
2023-05-07T02:36:33.618Z,82.68
2023-05-07T02:41:55.336Z,81.42
2023-05-07T02:47:17.034Z,81.68
2023-05-07T02:52:38.783Z,82.48
2023-05-07T02:58:00.502Z,83.28
2023-05-07T03:03:22.345Z,83.32
2023-05-07T03:08:44.356Z,82.72
2023-05-07T03:14:06.168Z,82.32
2023-05-07T03:19:27.867Z,83.01
2023-05-07T03:24:49.566Z,83.17
2023-05-07T03:30:12.335Z,83.56
2023-05-07T03:35:34.235Z,84.47
2023-05-07T03:40:56.014Z,85.48
2023-05-07T03:46:17.772Z,88.68
2023-05-07T03:51:39.504Z,88.65
2023-05-07T03:57:01.234Z,89.01
2023-05-07T04:02:22.970Z,88.54
2023-05-07T04:07:45.437Z,87.68
2023-05-07T04:13:07.237Z,88.82
2023-05-07T04:18:29.313Z,90.13
2023-05-07T04:23:51.020Z,88.87
2023-05-07T04:29:13.037Z,87.89
2023-05-07T04:34:34.736Z,89.81
2023-05-07T04:39:56.514Z,90.78
2023-05-07T04:45:18.438Z,90.59
2023-05-07T04:50:40.186Z,89.19
2023-05-07T04:56:01.945Z,89.87
2023-05-07T05:01:23.702Z,89.79
2023-05-07T05:06:45.789Z,88.02
2023-05-07T05:12:08.323Z,88.67
2023-05-07T05:17:30.145Z,89.01
2023-05-07T05:22:51.878Z,89.22
2023-05-07T05:28:13.545Z,89.37
2023-05-07T05:33:35.550Z,91.91
2023-05-07T05:38:57.258Z,92.15
2023-05-07T05:44:18.960Z,92.34
2023-05-07T05:49:40.743Z,91.57
2023-05-07T05:55:02.433Z,91.37
2023-05-07T06:00:24.389Z,89.69
2023-05-07T06:05:46.177Z,87.85
2023-05-07T06:11:07.930Z,90.45
2023-05-07T06:16:30.001Z,88.83
2023-05-07T06:21:51.782Z,88.92
2023-05-07T06:27:13.556Z,87.78
2023-05-07T06:32:35.307Z,87.13
2023-05-07T06:37:57.018Z,84.83
2023-05-07T06:43:18.753Z,84.13
2023-05-07T06:48:40.451Z,86.87
2023-05-07T06:54:02.444Z,85.92
2023-05-07T06:59:24.740Z,85.50
2023-05-07T07:04:46.625Z,86.19
2023-05-07T07:10:09.010Z,83.01
2023-05-07T07:15:30.925Z,82.44
2023-05-07T07:20:52.685Z,81.43
2023-05-07T07:26:14.401Z,80.48
2023-05-07T07:31:36.129Z,79.88
2023-05-07T07:36:57.899Z,77.93
2023-05-07T07:42:19.626Z,76.48
2023-05-07T07:47:41.635Z,74.84
2023-05-07T07:53:03.434Z,74.09
2023-05-07T07:58:25.832Z,73.61
2023-05-07T08:03:47.875Z,72.97
2023-05-07T08:09:09.849Z,72.70
2023-05-07T08:14:31.628Z,71.79
2023-05-07T08:19:53.349Z,71.99
2023-05-07T08:25:15.063Z,70.69
2023-05-07T08:30:36.842Z,71.43
2023-05-07T08:35:58.517Z,70.88
2023-05-07T08:41:21.273Z,70.99
2023-05-07T08:46:44.472Z,69.67
2023-05-07T08:52:08.675Z,70.46
2023-05-07T08:57:31.655Z,69.76
2023-05-07T09:02:54.287Z,68.94
2023-05-07T09:08:17.056Z,68.03
2023-05-07T09:13:38.809Z,65.86
2023-05-07T09:19:01.633Z,64.65
2023-05-07T09:24:23.338Z,66.43
2023-05-07T09:29:46.075Z,66.93
2023-05-07T09:35:16.870Z,67.04
2023-05-07T09:40:38.688Z,63.33
2023-05-07T09:46:25.310Z,63.65
2023-05-07T09:51:50.510Z,64.69
2023-05-07T09:57:13.787Z,64.93
2023-05-07T10:02:37.154Z,64.52
2023-05-07T10:07:59.673Z,63.32
2023-05-07T10:13:22.222Z,62.13
2023-05-07T10:18:44.740Z,61.83
2023-05-07T10:24:14.884Z,61.86
2023-05-07T10:29:42.338Z,60.79
2023-05-07T10:35:07.850Z,60.47
2023-05-07T10:40:29.633Z,60.49
2023-05-07T10:46:10.808Z,57.97
2023-05-07T10:51:36.658Z,59.27
2023-05-07T10:57:44.529Z,55.25
2023-05-07T11:03:07.837Z,55.62
2023-05-07T11:08:57.082Z,57.91
2023-05-07T11:14:40.936Z,57.81
2023-05-07T11:20:03.552Z,56.42
2023-05-07T11:25:26.413Z,56.92
2023-05-07T11:30:48.405Z,56.54
2023-05-07T11:36:10.763Z,56.37
2023-05-07T11:41:40.802Z,57.01
2023-05-07T11:47:03.141Z,59.37
2023-05-07T11:52:25.723Z,57.40
2023-05-07T11:57:47.548Z,57.50
2023-05-07T12:03:09.386Z,57.63
2023-05-07T12:08:31.331Z,58.71
2023-05-07T12:13:58.823Z,59.36
2023-05-07T12:19:21.900Z,64.60
2023-05-07T12:24:57.384Z,68.56
2023-05-07T12:30:19.272Z,87.93
2023-05-07T12:35:43.363Z,96.83
2023-05-07T12:41:08.024Z,98.20
2023-05-07T12:46:29.849Z,100.00
2023-05-07T12:51:51.815Z,100.00
2023-05-07T12:57:13.495Z,100.00
2023-05-07T13:02:38.878Z,96.75
2023-05-07T13:08:00.760Z,93.75
2023-05-07T13:13:22.811Z,97.11
2023-05-07T13:18:46.874Z,94.84
2023-05-07T13:24:08.842Z,100.00
2023-05-07T13:29:31.269Z,100.00
2023-05-07T13:34:52.978Z,100.00
2023-05-07T13:40:14.762Z,100.00
2023-05-07T13:45:36.536Z,100.00
2023-05-07T13:50:58.274Z,100.00
2023-05-07T13:56:21.161Z,100.00
2023-05-07T14:01:42.941Z,99.63
2023-05-07T14:07:04.791Z,100.00
2023-05-07T14:12:26.479Z,100.00
2023-05-07T14:17:48.241Z,100.00
2023-05-07T14:23:10.564Z,100.00
2023-05-07T14:28:32.412Z,100.00
2023-05-07T14:33:54.527Z,100.00
2023-05-07T14:39:16.484Z,100.00
2023-05-07T14:44:38.271Z,100.00
2023-05-07T14:50:01.988Z,100.00
2023-05-07T14:55:24.078Z,100.00
2023-05-07T15:00:45.796Z,100.00
2023-05-07T15:06:07.673Z,100.00
2023-05-07T15:11:29.603Z,100.00
2023-05-07T15:16:51.346Z,100.00
2023-05-07T15:22:13.093Z,100.00
2023-05-07T15:27:34.866Z,100.00
2023-05-07T15:32:56.702Z,100.00
2023-05-07T15:38:18.485Z,100.00
2023-05-07T15:43:47.066Z,100.00
2023-05-07T15:49:08.831Z,100.00
2023-05-07T15:54:31.059Z,100.00
2023-05-07T15:59:52.776Z,100.00
2023-05-07T16:05:14.731Z,100.00
2023-05-07T16:10:36.530Z,100.00
2023-05-07T16:15:59.592Z,100.00
2023-05-07T16:21:21.363Z,100.00
2023-05-07T16:26:43.137Z,100.00
2023-05-07T16:32:05.221Z,100.00
2023-05-07T16:37:26.926Z,100.00
2023-05-07T16:42:48.777Z,100.00
2023-05-07T16:48:10.746Z,100.00
2023-05-07T16:53:32.886Z,100.00
2023-05-07T16:58:55.583Z,100.00
2023-05-07T17:04:17.267Z,100.00
2023-05-07T17:09:39.039Z,100.00
2023-05-07T17:15:00.779Z,100.00
2023-05-07T17:20:23.511Z,100.00
2023-05-07T17:25:45.687Z,100.00
2023-05-07T17:31:07.689Z,100.00
2023-05-07T17:36:29.444Z,100.00
2023-05-07T17:41:51.231Z,100.00
2023-05-07T17:47:14.197Z,100.00
2023-05-07T17:52:36.507Z,100.00
2023-05-07T17:57:58.369Z,100.00
2023-05-07T18:03:20.402Z,100.00
2023-05-07T18:08:42.275Z,100.00
2023-05-07T18:14:04.088Z,100.00
2023-05-07T18:19:27.009Z,100.00
2023-05-07T18:24:49.511Z,100.00
2023-05-07T18:30:11.790Z,100.00
2023-05-07T18:35:34.098Z,100.00
2023-05-07T18:41:03.750Z,100.00
2023-05-07T18:46:25.679Z,100.00
2023-05-07T18:51:47.418Z,100.00
2023-05-07T18:57:09.328Z,100.00
2023-05-07T19:02:31.077Z,100.00
2023-05-07T19:07:53.199Z,100.00
2023-05-07T19:13:15.017Z,100.00
2023-05-07T19:18:36.950Z,100.00
2023-05-07T19:23:58.716Z,100.00
2023-05-07T19:29:20.487Z,100.00
2023-05-07T19:34:42.186Z,100.00
2023-05-07T19:40:06.105Z,100.00
2023-05-07T19:45:27.990Z,100.00
2023-05-07T19:50:49.840Z,100.00
2023-05-07T19:56:12.867Z,100.00
2023-05-07T20:01:34.738Z,100.00
2023-05-07T20:06:57.438Z,100.00
2023-05-07T20:12:21.281Z,100.00
2023-05-07T20:17:43.167Z,100.00
2023-05-07T20:23:05.027Z,100.00
2023-05-07T20:28:27.142Z,100.00
2023-05-07T20:33:48.870Z,100.00
2023-05-07T20:39:14.499Z,100.00
2023-05-07T20:44:36.378Z,100.00
2023-05-07T20:49:58.078Z,100.00
2023-05-07T20:55:19.772Z,100.00
2023-05-07T21:00:41.437Z,100.00
2023-05-07T21:06:04.097Z,100.00
2023-05-07T21:11:25.899Z,100.00
2023-05-07T21:16:47.691Z,100.00
2023-05-07T21:22:09.442Z,100.00
2023-05-07T21:27:31.220Z,100.00
2023-05-07T21:32:55.378Z,100.00
2023-05-07T21:38:18.683Z,100.00
2023-05-07T21:43:40.574Z,100.00
2023-05-07T21:49:02.318Z,100.00
2023-05-07T21:54:24.153Z,100.00
2023-05-07T21:59:45.888Z,100.00
2023-05-07T22:05:07.990Z,100.00
2023-05-07T22:10:30.260Z,100.00
2023-05-07T22:15:57.332Z,100.00
2023-05-07T22:21:20.576Z,100.00
2023-05-07T22:26:42.290Z,100.00
2023-05-07T22:32:04.192Z,100.00
2023-05-07T22:37:26.866Z,100.00
2023-05-07T22:42:48.595Z,100.00
2023-05-07T22:48:10.411Z,100.00
2023-05-07T22:53:32.184Z,100.00
2023-05-07T22:58:53.860Z,100.00
2023-05-07T23:04:15.631Z,100.00
2023-05-07T23:09:37.330Z,100.00
2023-05-07T23:14:59.048Z,100.00
2023-05-07T23:20:20.799Z,100.00
2023-05-07T23:25:42.497Z,100.00
2023-05-07T23:31:07.270Z,100.00
2023-05-07T23:36:28.976Z,100.00
2023-05-07T23:41:50.685Z,100.00
2023-05-07T23:47:12.387Z,100.00
2023-05-07T23:52:34.052Z,100.00
2023-05-07T23:57:55.871Z,100.00
